Bismarck, North Dakota
Current Conditions -  °F | °C
As of 9:52 PM on Tuesday 21 Oct 2014 (Local Time) from KBIS Reporting Station
Clear Clear  
Wind Chill: 66°   Ceiling: Unl
Heat Index: 66°   Visibility: 10mi
Dew Point: 41°   Wind: 15mph
Humidity: 40%   Direction: 150°SSE
Pressure: 29.68"   Gusts: NA
Location:  46.81°N, 100.77°W
Report Text: KBIS 220252Z AUTO 15013KT 10SM CLR 19/05 A2968 RMK AO2 SLP048 T01890050 51006
Loading
Personal Weather Stations






























Interactive Weather Map
Tropical Storm Tracking
New forecast layout! Learn more

10-Day Weather Forecast

Advertisements
Track Severe Weather on mobile